createdAt,value
2022-09-23T00:00:16.761Z,31.88
2022-09-23T00:00:46.794Z,31.91
2022-09-23T00:01:16.911Z,31.88
2022-09-23T00:01:46.942Z,31.90
2022-09-23T00:02:17.060Z,31.87
2022-09-23T00:02:47.059Z,31.85
2022-09-23T00:03:17.001Z,31.88
2022-09-23T00:03:47.250Z,31.87
2022-09-23T00:04:17.137Z,31.88
2022-09-23T00:04:47.176Z,31.87
2022-09-23T00:05:17.214Z,31.85
2022-09-23T00:05:47.240Z,31.83
2022-09-23T00:06:17.265Z,31.91
2022-09-23T00:06:47.257Z,31.91
2022-09-23T00:07:17.251Z,31.88
2022-09-23T00:07:47.250Z,31.88
2022-09-23T00:08:17.252Z,31.86
2022-09-23T00:08:47.363Z,31.90
2022-09-23T00:09:17.352Z,31.90
2022-09-23T00:09:47.350Z,31.88
2022-09-23T00:10:17.466Z,31.87
2022-09-23T00:10:47.465Z,31.90
2022-09-23T00:11:17.462Z,31.88
2022-09-23T00:11:47.581Z,31.90
2022-09-23T00:12:17.574Z,31.93
2022-09-23T00:12:47.574Z,31.94
2022-09-23T00:13:17.685Z,31.91
2022-09-23T00:13:47.686Z,31.96
2022-09-23T00:14:17.678Z,31.92
2022-09-23T00:14:47.796Z,31.92
2022-09-23T00:15:17.791Z,31.92
2022-09-23T00:15:47.913Z,31.91
2022-09-23T00:16:17.977Z,31.88
2022-09-23T00:16:48.089Z,31.92
2022-09-23T00:17:18.063Z,31.94
2022-09-23T00:17:48.112Z,31.92
2022-09-23T00:18:18.127Z,31.91
2022-09-23T00:18:48.165Z,31.90
2022-09-23T00:19:18.223Z,31.94
2022-09-23T00:19:48.227Z,31.93
2022-09-23T00:20:18.258Z,31.89
2022-09-23T00:20:48.288Z,31.94
2022-09-23T00:21:18.313Z,31.91
2022-09-23T00:21:48.352Z,31.88
2022-09-23T00:22:18.378Z,31.88
2022-09-23T00:22:48.404Z,31.88
2022-09-23T00:23:18.433Z,31.92
2022-09-23T00:23:48.472Z,31.86
2022-09-23T00:24:18.509Z,31.89
2022-09-23T00:24:48.542Z,31.85
2022-09-23T00:25:18.573Z,31.91
2022-09-23T00:25:48.601Z,31.82
2022-09-23T00:26:18.632Z,31.88
2022-09-23T00:26:48.673Z,31.88
2022-09-23T00:27:18.708Z,31.88
2022-09-23T00:27:48.745Z,31.89
2022-09-23T00:28:18.784Z,31.91
2022-09-23T00:28:48.817Z,31.89
2022-09-23T00:29:18.845Z,31.83
2022-09-23T00:29:48.876Z,31.88
2022-09-23T00:30:18.905Z,31.85
2022-09-23T00:30:48.990Z,31.85
2022-09-23T00:31:19.167Z,31.81
2022-09-23T00:31:49.105Z,31.86
2022-09-23T00:32:19.130Z,31.78
2022-09-23T00:32:49.164Z,31.86
2022-09-23T00:33:19.195Z,31.83
2022-09-23T00:33:49.228Z,31.85
2022-09-23T00:34:19.262Z,31.85
2022-09-23T00:34:49.314Z,31.80
2022-09-23T00:35:19.320Z,31.88
2022-09-23T00:35:49.350Z,31.91
2022-09-23T00:36:19.496Z,31.85
2022-09-23T00:36:49.407Z,31.89
2022-09-23T00:37:19.439Z,31.86
2022-09-23T00:37:49.470Z,31.91
2022-09-23T00:38:19.494Z,31.86
2022-09-23T00:38:49.537Z,31.81
2022-09-23T00:39:19.562Z,31.83
2022-09-23T00:39:49.601Z,31.89
2022-09-23T00:40:19.688Z,31.85
2022-09-23T00:40:49.833Z,31.88
2022-09-23T00:41:19.755Z,31.83
2022-09-23T00:41:49.745Z,31.84
2022-09-23T00:42:19.776Z,31.83
2022-09-23T00:42:49.857Z,31.85
2022-09-23T00:43:19.887Z,31.86
2022-09-23T00:43:49.936Z,31.86
2022-09-23T00:44:19.960Z,31.86
2022-09-23T00:44:49.989Z,31.83
2022-09-23T00:45:20.030Z,31.81
2022-09-23T00:45:50.128Z,31.84
2022-09-23T00:46:20.277Z,31.83
2022-09-23T00:46:50.227Z,31.84
2022-09-23T00:47:20.258Z,31.86
2022-09-23T00:47:50.288Z,31.86
2022-09-23T00:48:20.316Z,31.83
2022-09-23T00:48:50.347Z,31.83
2022-09-23T00:49:20.378Z,31.88
2022-09-23T00:49:50.405Z,31.84
2022-09-23T00:50:20.458Z,31.90
2022-09-23T00:50:50.470Z,31.83
2022-09-23T00:51:20.511Z,31.86
2022-09-23T00:51:50.538Z,31.86
2022-09-23T00:52:20.573Z,31.90
2022-09-23T00:52:50.598Z,31.84
2022-09-23T00:53:20.629Z,31.77
2022-09-23T00:53:50.663Z,31.89
2022-09-23T00:54:20.690Z,31.84
2022-09-23T00:54:50.723Z,31.83
2022-09-23T00:55:20.752Z,31.86
2022-09-23T00:55:50.786Z,31.86
2022-09-23T00:56:20.833Z,31.90
2022-09-23T00:56:50.866Z,31.83
2022-09-23T00:57:20.893Z,31.92
2022-09-23T00:57:50.925Z,31.84
2022-09-23T00:58:20.958Z,31.84
2022-09-23T00:58:50.988Z,31.92
2022-09-23T00:59:21.016Z,31.93
2022-09-23T00:59:51.045Z,31.92
2022-09-23T01:00:21.075Z,31.87
2022-09-23T01:00:51.175Z,31.89
2022-09-23T01:01:21.273Z,31.84
2022-09-23T01:01:51.288Z,31.86
2022-09-23T01:02:21.387Z,31.89
2022-09-23T01:02:51.540Z,31.84
2022-09-23T01:03:21.503Z,31.89
2022-09-23T01:03:51.532Z,31.83
2022-09-23T01:04:21.564Z,31.81
2022-09-23T01:04:51.600Z,31.86
2022-09-23T01:05:21.625Z,31.81
2022-09-23T01:05:51.676Z,31.84
2022-09-23T01:06:21.669Z,31.76
2022-09-23T01:06:51.661Z,31.87
2022-09-23T01:07:21.779Z,31.81
2022-09-23T01:07:51.899Z,31.84
2022-09-23T01:08:22.011Z,31.81
2022-09-23T01:11:45.485Z,32.01
2022-09-23T01:12:54.535Z,32.04
2022-09-23T01:13:24.590Z,32.09
2022-09-23T01:13:54.667Z,32.04
2022-09-23T01:14:24.746Z,32.09
2022-09-23T01:14:54.826Z,32.06
2022-09-23T01:15:24.905Z,32.03
2022-09-23T01:15:54.993Z,32.09
2022-09-23T01:16:25.152Z,32.09
2022-09-23T01:16:55.198Z,32.12
2022-09-23T01:17:25.147Z,32.10
2022-09-23T01:17:55.225Z,32.09
2022-09-23T01:18:25.309Z,32.05
2022-09-23T01:18:55.391Z,32.05
2022-09-23T01:19:25.475Z,32.04
2022-09-23T01:19:55.555Z,32.04
2022-09-23T01:20:25.634Z,32.00
2022-09-23T01:20:55.730Z,32.06
2022-09-23T01:21:25.793Z,32.01
2022-09-23T01:21:55.883Z,32.02
2022-09-23T01:22:25.955Z,32.03
2022-09-23T01:22:55.950Z,32.04
2022-09-23T01:23:26.064Z,31.95
2022-09-23T01:23:56.185Z,32.00
2022-09-23T01:24:26.177Z,32.00
2022-09-23T01:24:56.177Z,32.00
2022-09-23T01:25:26.290Z,31.94
2022-09-23T01:25:56.417Z,31.94
2022-09-23T01:26:26.528Z,31.94
2022-09-23T01:26:56.645Z,31.92
2022-09-23T01:27:26.637Z,31.89
2022-09-23T01:27:56.771Z,31.91
2022-09-23T01:28:26.748Z,31.91
2022-09-23T01:28:56.754Z,31.91
2022-09-23T01:29:26.740Z,31.88
2022-09-23T01:29:56.862Z,31.86
2022-09-23T01:30:26.880Z,31.85
2022-09-23T01:30:56.947Z,31.88
2022-09-23T01:31:26.969Z,31.85
2022-09-23T01:31:57.098Z,31.91
2022-09-23T01:32:27.086Z,31.89
2022-09-23T01:32:57.080Z,31.86
2022-09-23T01:33:27.076Z,31.89
2022-09-23T01:33:57.190Z,31.87
2022-09-23T01:34:27.185Z,31.88
2022-09-23T01:34:57.300Z,31.88
2022-09-23T01:35:27.414Z,31.91
2022-09-23T01:35:57.539Z,31.87
2022-09-23T01:36:27.677Z,31.88
2022-09-23T01:36:57.774Z,31.85
2022-09-23T01:37:27.764Z,31.85
2022-09-23T01:37:57.880Z,31.91
2022-09-23T01:38:27.994Z,31.91
2022-09-23T01:38:57.988Z,31.89
2022-09-23T01:39:28.107Z,31.90
2022-09-23T01:39:58.223Z,31.88
2022-09-23T01:40:28.277Z,31.94
2022-09-23T01:40:58.252Z,31.93
2022-09-23T01:41:28.248Z,31.83
2022-09-23T01:41:58.254Z,31.88
2022-09-23T01:42:28.373Z,31.91
2022-09-23T01:42:58.489Z,31.88
2022-09-23T01:43:28.478Z,31.85
2022-09-23T01:43:58.593Z,31.94
2022-09-23T01:44:28.591Z,31.88
2022-09-23T01:44:58.709Z,31.89
2022-09-23T01:45:28.824Z,31.85
2022-09-23T01:45:58.825Z,31.92
2022-09-23T01:46:28.820Z,31.80
2022-09-23T01:46:58.939Z,31.83
2022-09-23T01:47:28.935Z,31.80
2022-09-23T01:47:59.099Z,31.85
2022-09-23T01:48:29.148Z,31.86
2022-09-23T01:48:59.306Z,31.84
2022-09-23T01:49:29.295Z,31.85
2022-09-23T01:49:59.299Z,31.82
2022-09-23T01:50:29.292Z,31.83
2022-09-23T01:50:59.295Z,31.85
2022-09-23T01:51:29.307Z,31.86
2022-09-23T01:51:59.403Z,31.80
2022-09-23T01:52:29.398Z,31.82
2022-09-23T01:52:59.513Z,31.80
2022-09-23T01:53:29.627Z,31.85
2022-09-23T01:53:59.637Z,31.79
2022-09-23T01:54:29.747Z,31.85
2022-09-23T01:54:59.866Z,31.80
2022-09-23T01:55:29.982Z,31.79
2022-09-23T01:56:00.115Z,31.85
2022-09-23T01:56:30.105Z,31.85
2022-09-23T01:57:00.223Z,31.83
2022-09-23T01:57:30.344Z,31.79
2022-09-23T01:58:00.459Z,31.80
2022-09-23T01:58:30.576Z,31.85
2022-09-23T01:59:00.694Z,31.83
2022-09-23T01:59:30.812Z,31.88
2022-09-23T02:00:00.931Z,31.80
2022-09-23T02:00:30.932Z,31.82
2022-09-23T02:01:01.099Z,31.86
2022-09-23T02:01:31.228Z,31.88
2022-09-23T02:02:01.277Z,31.79
2022-09-23T02:02:31.310Z,31.86
2022-09-23T02:03:01.308Z,31.87
2022-09-23T02:03:31.425Z,31.89
2022-09-23T02:04:01.564Z,31.85
2022-09-23T02:04:31.576Z,31.85
2022-09-23T02:05:01.577Z,31.85
2022-09-23T02:05:31.565Z,31.85
2022-09-23T02:06:01.699Z,31.88
2022-09-23T02:06:31.688Z,31.80
2022-09-23T02:07:01.826Z,31.83
2022-09-23T02:07:31.801Z,31.85
2022-09-23T02:08:01.797Z,31.86
2022-09-23T02:08:31.914Z,31.86
2022-09-23T02:09:01.910Z,31.83
2022-09-23T02:09:32.028Z,31.83
2022-09-23T02:10:02.029Z,31.86
2022-09-23T02:10:32.021Z,31.88
2022-09-23T02:11:02.165Z,31.86
2022-09-23T02:11:32.151Z,31.88
2022-09-23T02:12:02.275Z,31.88
2022-09-23T02:12:32.380Z,31.88
2022-09-23T02:13:02.457Z,31.83
2022-09-23T02:13:32.537Z,31.88
2022-09-23T02:14:02.629Z,31.85
2022-09-23T02:14:32.690Z,31.83
2022-09-23T02:15:02.778Z,31.91
2022-09-23T02:15:32.855Z,31.86
2022-09-23T02:16:02.969Z,31.86
2022-09-23T02:16:33.144Z,31.83
2022-09-23T02:17:03.106Z,31.88
2022-09-23T02:17:33.182Z,31.85
2022-09-23T02:18:03.264Z,31.88
2022-09-23T02:18:33.344Z,31.81
2022-09-23T02:19:03.438Z,31.88
2022-09-23T02:19:33.501Z,31.84
2022-09-23T02:20:03.588Z,31.91
2022-09-23T02:20:33.672Z,31.82
2022-09-23T02:21:03.769Z,31.85
2022-09-23T02:21:33.848Z,31.85
2022-09-23T02:22:03.946Z,31.85
2022-09-23T02:22:34.021Z,31.88
2022-09-23T02:23:04.018Z,31.86
2022-09-23T02:23:34.132Z,31.88
2022-09-23T02:24:04.249Z,31.86
2022-09-23T02:24:34.265Z,31.86
2022-09-23T02:25:04.384Z,31.83
2022-09-23T02:25:34.500Z,31.81
2022-09-23T02:26:04.645Z,31.90
2022-09-23T02:26:34.638Z,31.88
2022-09-23T02:27:04.755Z,31.83
2022-09-23T02:27:34.749Z,31.84
2022-09-23T02:28:04.864Z,31.88
2022-09-23T02:28:34.861Z,31.83
2022-09-23T02:29:04.857Z,31.81
2022-09-23T02:29:34.852Z,31.83
2022-09-23T02:30:04.972Z,31.83
2022-09-23T02:30:34.965Z,31.81
2022-09-23T02:31:05.105Z,31.88
2022-09-23T02:31:35.117Z,31.86
2022-09-23T02:32:05.192Z,31.83
2022-09-23T02:32:35.204Z,31.81
2022-09-23T02:33:05.320Z,31.83
2022-09-23T02:33:35.316Z,31.83
2022-09-23T02:34:05.432Z,31.80
2022-09-23T02:34:35.425Z,31.87
2022-09-23T02:35:05.544Z,31.84
2022-09-23T02:35:35.662Z,31.83
2022-09-23T02:36:05.662Z,31.80
2022-09-23T02:36:35.659Z,31.80
2022-09-23T02:37:05.802Z,31.83
2022-09-23T02:37:35.773Z,31.81
2022-09-23T02:38:05.890Z,31.81
2022-09-23T02:38:35.934Z,31.80
2022-09-23T02:39:06.056Z,31.78
2022-09-23T02:39:36.168Z,31.78
2022-09-23T02:40:06.359Z,31.86
2022-09-23T02:40:36.433Z,31.80
2022-09-23T02:41:06.417Z,31.78
2022-09-23T02:41:36.548Z,31.78
2022-09-23T02:42:06.548Z,31.84
2022-09-23T02:42:36.660Z,31.85
2022-09-23T02:43:06.774Z,31.81
2022-09-23T02:43:36.768Z,31.80
2022-09-23T02:44:07.060Z,31.83
2022-09-23T02:44:36.918Z,31.83
2022-09-23T02:45:06.915Z,31.80
2022-09-23T02:45:37.192Z,31.84
2022-09-23T02:46:07.134Z,31.78
2022-09-23T02:46:37.054Z,31.78
2022-09-23T02:47:07.169Z,31.80
2022-09-23T02:47:37.284Z,31.89
2022-09-23T02:48:07.279Z,31.78
2022-09-23T02:48:37.274Z,31.80
2022-09-23T02:49:07.385Z,31.75
2022-09-23T02:49:37.381Z,31.84
2022-09-23T02:50:07.498Z,31.80
2022-09-23T02:50:37.615Z,31.83
2022-09-23T02:51:07.735Z,31.81
2022-09-23T02:51:37.867Z,31.86
2022-09-23T02:52:07.866Z,31.80
2022-09-23T02:52:37.986Z,31.84
2022-09-23T02:53:08.080Z,31.86
2022-09-23T02:53:38.078Z,31.78
2022-09-23T02:54:08.074Z,31.81
2022-09-23T02:54:38.194Z,31.81
2022-09-23T02:55:08.306Z,31.80
2022-09-23T02:55:38.421Z,31.78
2022-09-23T02:56:08.538Z,31.83
2022-09-23T02:56:38.659Z,31.80
2022-09-23T02:57:08.649Z,31.81
2022-09-23T02:57:38.648Z,31.83
2022-09-23T02:58:08.760Z,31.78
2022-09-23T02:58:38.878Z,31.83
2022-09-23T02:59:08.881Z,31.77
2022-09-23T02:59:38.986Z,31.81
2022-09-23T03:00:08.987Z,31.83
2022-09-23T03:00:38.980Z,31.82
2022-09-23T03:01:09.198Z,31.78
2022-09-23T03:01:39.326Z,31.77
2022-09-23T03:02:09.255Z,31.75
2022-09-23T03:02:39.343Z,31.81
2022-09-23T03:03:09.331Z,31.80
2022-09-23T03:03:39.325Z,31.77
2022-09-23T03:04:09.439Z,31.77
2022-09-23T03:04:39.557Z,31.76
2022-09-23T03:05:09.568Z,31.74
2022-09-23T03:05:39.676Z,31.74
2022-09-23T03:06:09.847Z,31.76
2022-09-23T03:06:39.844Z,31.76
2022-09-23T03:07:09.957Z,31.77
2022-09-23T03:07:39.957Z,31.80
2022-09-23T03:08:09.969Z,31.70
2022-09-23T03:08:40.059Z,31.71
2022-09-23T03:09:10.056Z,31.73
2022-09-23T03:09:40.051Z,31.71
2022-09-23T03:10:10.169Z,31.77
2022-09-23T03:10:40.287Z,31.67
2022-09-23T03:11:10.416Z,31.71
2022-09-23T03:11:40.432Z,31.68
2022-09-23T03:12:10.420Z,31.67
2022-09-23T03:12:40.523Z,31.72
2022-09-23T03:13:10.610Z,31.72
2022-09-23T03:13:40.689Z,31.67
2022-09-23T03:14:10.773Z,31.67
2022-09-23T03:14:40.853Z,31.70
2022-09-23T03:15:10.937Z,31.72
2022-09-23T03:15:41.014Z,31.65
2022-09-23T03:16:11.196Z,31.65
2022-09-23T03:16:41.216Z,31.68
2022-09-23T03:17:11.275Z,31.62
2022-09-23T03:17:41.355Z,31.65
2022-09-23T03:18:11.431Z,31.64
2022-09-23T03:18:41.514Z,31.64
2022-09-23T03:19:11.593Z,31.61
2022-09-23T03:19:41.679Z,31.61
2022-09-23T03:20:11.759Z,31.59
2022-09-23T03:20:41.834Z,31.66
2022-09-23T03:21:11.936Z,31.62
2022-09-23T03:21:42.013Z,31.64
2022-09-23T03:22:12.087Z,31.58
2022-09-23T03:22:42.194Z,31.61
2022-09-23T03:23:12.332Z,31.64
2022-09-23T03:23:42.306Z,31.64
2022-09-23T03:24:12.419Z,31.59
2022-09-23T03:24:42.536Z,31.58
2022-09-23T03:25:12.653Z,31.60
2022-09-23T03:25:42.772Z,31.63
2022-09-23T03:26:12.903Z,31.56
2022-09-23T03:26:42.897Z,31.60
2022-09-23T03:27:13.014Z,31.63
2022-09-23T03:27:43.128Z,31.59
2022-09-23T03:28:13.245Z,31.61
2022-09-23T03:28:43.359Z,31.58
2022-09-23T03:29:13.471Z,31.56
2022-09-23T03:29:43.585Z,31.61
2022-09-23T03:30:13.704Z,31.58
2022-09-23T03:30:43.821Z,31.58
2022-09-23T03:31:14.020Z,31.59
2022-09-23T03:31:44.035Z,31.59
2022-09-23T03:32:14.029Z,31.64
2022-09-23T03:32:44.026Z,31.61
2022-09-23T03:33:14.021Z,31.59
2022-09-23T03:33:44.136Z,31.58
2022-09-23T03:34:14.249Z,31.55
2022-09-23T03:34:44.376Z,31.59
2022-09-23T03:35:14.368Z,31.62
2022-09-23T03:35:44.488Z,31.58
2022-09-23T03:36:14.520Z,31.62
2022-09-23T03:36:44.513Z,31.64
2022-09-23T03:37:14.628Z,31.64
2022-09-23T03:37:44.748Z,31.57
2022-09-23T03:38:14.763Z,31.64
2022-09-23T03:38:44.854Z,31.67
2022-09-23T03:39:14.970Z,31.64
2022-09-23T03:39:44.972Z,31.71
2022-09-23T03:40:15.062Z,31.70
2022-09-23T03:40:45.193Z,31.71
2022-09-23T03:41:15.054Z,31.72
2022-09-23T03:41:45.174Z,31.74
2022-09-23T03:42:15.288Z,31.72
2022-09-23T03:42:45.286Z,31.72
2022-09-23T03:43:15.297Z,31.76
2022-09-23T03:43:45.300Z,31.74
2022-09-23T03:44:15.296Z,31.72
2022-09-23T03:44:45.411Z,31.71
2022-09-23T03:45:15.407Z,31.70
2022-09-23T03:45:45.616Z,31.69
2022-09-23T03:46:15.660Z,31.71
2022-09-23T03:46:45.649Z,31.74
2022-09-23T03:47:15.647Z,31.72
2022-09-23T03:47:45.770Z,31.77
2022-09-23T03:48:15.764Z,31.70
2022-09-23T03:48:45.887Z,31.69
2022-09-23T03:49:15.997Z,31.66
2022-09-23T03:49:45.994Z,31.63
2022-09-23T03:50:16.115Z,31.71
2022-09-23T03:50:46.245Z,31.72
2022-09-23T03:51:16.232Z,31.66
2022-09-23T03:51:46.229Z,31.74
2022-09-23T03:52:16.344Z,31.68
2022-09-23T03:52:46.457Z,31.68
2022-09-23T03:53:16.474Z,31.68
2022-09-23T03:53:46.450Z,31.70
2022-09-23T03:54:16.564Z,31.63
2022-09-23T03:54:46.683Z,31.65
2022-09-23T03:55:16.686Z,31.65
2022-09-23T03:55:46.711Z,31.68
2022-09-23T03:56:16.693Z,31.65
2022-09-23T03:56:46.810Z,31.66
2022-09-23T03:57:16.807Z,31.74
2022-09-23T03:57:46.926Z,31.67
2022-09-23T03:58:17.043Z,31.68
2022-09-23T03:58:47.156Z,31.70
2022-09-23T03:59:17.150Z,31.71
2022-09-23T03:59:47.269Z,31.67
2022-09-23T04:00:17.265Z,31.71
2022-09-23T04:00:47.429Z,31.70
2022-09-23T04:01:17.498Z,31.70
2022-09-23T04:01:47.538Z,31.70
2022-09-23T04:02:17.533Z,31.68
2022-09-23T04:02:47.531Z,31.70
2022-09-23T04:03:17.527Z,31.71
2022-09-23T04:03:47.646Z,31.68
2022-09-23T04:04:17.763Z,31.74
2022-09-23T04:04:47.877Z,31.74
2022-09-23T04:05:17.996Z,31.68
2022-09-23T04:05:47.997Z,31.71
2022-09-23T04:06:18.114Z,31.71
2022-09-23T04:06:48.248Z,31.71
2022-09-23T04:07:18.240Z,31.79
2022-09-23T04:07:48.357Z,31.71
2022-09-23T04:08:18.472Z,31.77
2022-09-23T04:08:48.677Z,31.68
2022-09-23T04:09:18.503Z,31.70
2022-09-23T04:09:48.620Z,31.73
2022-09-23T04:10:18.612Z,31.71
2022-09-23T04:10:52.896Z,31.68
2022-09-23T04:11:18.749Z,31.68
2022-09-23T04:11:48.745Z,31.67
2022-09-23T04:12:18.737Z,31.65
2022-09-23T04:12:48.826Z,31.61
2022-09-23T04:13:18.904Z,31.64
2022-09-23T04:13:48.984Z,31.61
2022-09-23T04:14:19.062Z,31.61
2022-09-23T04:14:49.142Z,31.58
2022-09-23T04:15:19.224Z,31.56
2022-09-23T04:15:49.303Z,31.59
2022-09-23T04:16:19.442Z,31.58
2022-09-23T04:16:49.540Z,31.54
2022-09-23T04:17:19.516Z,31.54
2022-09-23T04:17:49.592Z,31.48
2022-09-23T04:18:19.670Z,31.49
2022-09-23T04:18:49.748Z,31.52
2022-09-23T04:19:19.819Z,31.49
2022-09-23T04:19:49.902Z,31.46
2022-09-23T04:20:19.985Z,31.46
2022-09-23T04:20:50.064Z,31.43
2022-09-23T04:21:20.138Z,31.45
2022-09-23T04:21:50.221Z,31.45
2022-09-23T04:22:20.300Z,31.40
2022-09-23T04:22:50.415Z,31.43
2022-09-23T04:23:20.532Z,31.40
2022-09-23T04:23:50.675Z,31.39
2022-09-23T04:24:20.773Z,31.36
2022-09-23T04:24:50.764Z,31.40
2022-09-23T04:25:20.762Z,31.41
2022-09-23T04:25:50.876Z,31.36
2022-09-23T04:26:20.995Z,31.38
2022-09-23T04:26:50.999Z,31.37
2022-09-23T04:27:20.986Z,31.33
2022-09-23T04:27:51.104Z,31.38
2022-09-23T04:28:21.098Z,31.33
2022-09-23T04:28:51.219Z,31.30
2022-09-23T04:29:21.334Z,31.29
2022-09-23T04:29:51.452Z,31.27
2022-09-23T04:30:21.573Z,31.27
2022-09-23T04:30:51.691Z,31.32
2022-09-23T04:31:21.722Z,31.27
2022-09-23T04:31:51.863Z,31.21
2022-09-23T04:32:21.852Z,31.17
2022-09-23T04:32:51.966Z,31.18
2022-09-23T04:33:21.960Z,31.11
2022-09-23T04:33:52.077Z,31.13
2022-09-23T04:34:22.197Z,31.09
2022-09-23T04:34:52.311Z,31.03
2022-09-23T04:35:22.433Z,31.00
2022-09-23T04:35:52.547Z,30.98
2022-09-23T04:36:22.539Z,30.96
2022-09-23T04:36:52.669Z,30.97
2022-09-23T04:37:22.674Z,30.96
2022-09-23T04:37:52.668Z,30.96
2022-09-23T04:38:22.678Z,30.98
2022-09-23T04:38:52.714Z,30.97
2022-09-23T04:39:22.736Z,31.03
2022-09-23T04:39:52.754Z,30.98
2022-09-23T04:40:22.864Z,31.00
2022-09-23T04:40:52.933Z,30.96
2022-09-23T04:41:22.861Z,30.92
2022-09-23T04:41:52.852Z,30.89
2022-09-23T04:42:22.971Z,30.98
2022-09-23T04:42:52.975Z,31.06
2022-09-23T04:43:22.970Z,31.00
2022-09-23T04:43:52.964Z,30.98
2022-09-23T04:44:22.958Z,30.98
2022-09-23T04:44:53.077Z,31.01
2022-09-23T04:45:23.208Z,31.03
2022-09-23T04:45:53.214Z,31.03
2022-09-23T04:46:23.390Z,31.01
2022-09-23T04:46:53.387Z,31.04
2022-09-23T04:47:23.379Z,31.07
2022-09-23T04:47:53.500Z,31.06
2022-09-23T04:48:23.613Z,31.06
2022-09-23T04:48:53.731Z,31.06
2022-09-23T04:49:23.726Z,31.11
2022-09-23T04:49:57.765Z,31.12
2022-09-23T04:50:23.857Z,31.12
2022-09-23T04:50:53.854Z,31.12
2022-09-23T04:51:23.984Z,31.27
2022-09-23T04:51:53.977Z,31.06
2022-09-23T04:52:23.973Z,31.20
2022-09-23T04:52:54.092Z,31.15
2022-09-23T04:53:24.204Z,31.12
2022-09-23T04:53:54.321Z,31.13
2022-09-23T04:54:24.463Z,31.09
2022-09-23T04:54:54.555Z,31.14
2022-09-23T04:55:24.550Z,31.14
2022-09-23T04:55:54.669Z,31.03
2022-09-23T04:56:24.815Z,31.08
2022-09-23T04:56:54.804Z,31.02
2022-09-23T04:57:24.929Z,30.94
2022-09-23T04:57:55.042Z,30.97
2022-09-23T04:58:25.156Z,31.00
2022-09-23T04:58:55.147Z,31.00
2022-09-23T04:59:25.266Z,30.91
2022-09-23T04:59:55.384Z,30.84
2022-09-23T05:00:25.376Z,30.88
2022-09-23T05:00:55.393Z,30.77
2022-09-23T05:01:25.568Z,30.74
2022-09-23T05:01:55.657Z,30.80
2022-09-23T05:02:25.689Z,30.74
2022-09-23T05:02:55.671Z,30.66
2022-09-23T05:03:25.797Z,30.61
2022-09-23T05:03:55.792Z,30.60
2022-09-23T05:04:25.908Z,30.53
2022-09-23T05:04:56.023Z,30.56
2022-09-23T05:05:26.019Z,30.52
2022-09-23T05:05:56.137Z,30.56
2022-09-23T05:06:26.267Z,30.56
2022-09-23T05:06:59.483Z,30.55
2022-09-23T05:07:26.276Z,30.53
2022-09-23T05:07:56.390Z,30.61
2022-09-23T05:08:26.512Z,30.65
2022-09-23T05:08:56.624Z,30.61
2022-09-23T05:09:26.743Z,30.65
2022-09-23T05:09:56.793Z,30.64
2022-09-23T05:10:26.884Z,30.62
2022-09-23T05:10:57.004Z,30.54
2022-09-23T05:11:27.142Z,30.54
2022-09-23T05:11:57.134Z,30.59
2022-09-23T05:12:27.241Z,30.52
2022-09-23T05:12:57.510Z,30.42
2022-09-23T05:13:27.329Z,30.39
2022-09-23T05:13:57.407Z,30.27
2022-09-23T05:14:27.495Z,30.28
2022-09-23T05:14:57.569Z,30.24
2022-09-23T05:15:27.653Z,30.11
2022-09-23T05:15:57.779Z,30.16
2022-09-23T05:16:27.997Z,30.19
2022-09-23T05:16:57.819Z,30.08
2022-09-23T05:17:27.906Z,30.15
2022-09-23T05:17:57.989Z,30.06
2022-09-23T05:18:28.070Z,30.03
2022-09-23T05:18:58.169Z,30.14
2022-09-23T05:19:28.232Z,30.09
2022-09-23T05:19:58.307Z,30.16
2022-09-23T05:20:28.389Z,30.15
2022-09-23T05:20:58.466Z,30.21
2022-09-23T05:21:28.554Z,30.35
2022-09-23T05:21:58.635Z,30.29
2022-09-23T05:22:28.723Z,30.29
2022-09-23T05:22:58.840Z,30.30
2022-09-23T05:23:28.960Z,30.18
2022-09-23T05:23:59.123Z,30.15
2022-09-23T05:24:28.996Z,30.20
2022-09-23T05:24:59.135Z,30.21
2022-09-23T05:25:29.232Z,30.29
2022-09-23T05:25:59.348Z,30.19
2022-09-23T05:26:29.496Z,30.30
2022-09-23T05:26:59.489Z,30.29
2022-09-23T05:27:29.484Z,30.25
2022-09-23T05:27:59.598Z,30.33
2022-09-23T05:28:29.595Z,30.30
2022-09-23T05:28:59.819Z,30.27
2022-09-23T05:29:29.825Z,30.13
2022-09-23T05:29:59.936Z,30.16
2022-09-23T05:30:30.053Z,30.16
2022-09-23T05:31:00.135Z,30.13
2022-09-23T05:31:30.310Z,29.99
2022-09-23T05:32:00.326Z,30.09
2022-09-23T05:32:30.296Z,30.17
2022-09-23T05:33:00.408Z,30.16
2022-09-23T05:33:30.525Z,30.14
2022-09-23T05:34:00.519Z,30.13
2022-09-23T05:34:30.638Z,29.93
2022-09-23T05:35:00.753Z,30.07
2022-09-23T05:35:30.871Z,30.10
2022-09-23T05:36:00.870Z,29.93
2022-09-23T05:36:35.591Z,30.00
2022-09-23T05:37:01.004Z,29.90
2022-09-23T05:37:31.121Z,29.93
2022-09-23T05:38:01.238Z,30.13
2022-09-23T05:38:31.357Z,30.21
2022-09-23T05:39:01.473Z,30.32
2022-09-23T05:39:31.586Z,30.26
2022-09-23T05:40:01.705Z,30.37
2022-09-23T05:40:31.919Z,30.35
2022-09-23T05:41:01.891Z,30.46
2022-09-23T05:41:32.020Z,30.62
2022-09-23T05:42:02.012Z,30.55
2022-09-23T05:42:32.132Z,30.57
2022-09-23T05:43:02.249Z,30.69
2022-09-23T05:43:32.243Z,30.60
2022-09-23T05:44:02.360Z,30.49
2022-09-23T05:44:32.487Z,30.36
2022-09-23T05:45:02.596Z,30.34
2022-09-23T05:45:32.715Z,30.24
2022-09-23T05:46:05.964Z,30.17
2022-09-23T05:46:32.793Z,30.39
2022-09-23T05:47:02.901Z,30.24
2022-09-23T05:47:32.782Z,30.16
2022-09-23T05:48:02.900Z,30.10
2022-09-23T05:48:32.896Z,30.13
2022-09-23T05:49:08.074Z,30.10
2022-09-23T05:49:55.239Z,30.10
2022-09-23T05:50:02.917Z,30.04
2022-09-23T05:50:33.035Z,30.02
2022-09-23T05:51:03.035Z,29.93
2022-09-23T05:51:33.038Z,29.98
2022-09-23T05:52:03.029Z,29.92
2022-09-23T05:52:33.148Z,29.90
2022-09-23T05:53:03.142Z,29.89
2022-09-23T05:53:33.137Z,29.87
2022-09-23T05:54:03.167Z,29.88
2022-09-23T05:54:33.135Z,29.93
2022-09-23T05:55:03.254Z,29.88
2022-09-23T05:55:33.247Z,29.86
2022-09-23T05:56:33.370Z,29.84
2022-09-23T05:57:05.000Z,29.86
2022-09-23T05:57:33.438Z,29.92
2022-09-23T05:58:03.553Z,29.83
2022-09-23T05:58:33.668Z,29.85
2022-09-23T05:59:03.781Z,30.06
2022-09-23T05:59:33.783Z,30.30
2022-09-23T06:00:03.900Z,30.41
2022-09-23T06:00:34.019Z,30.42
2022-09-23T06:01:04.009Z,30.46
2022-09-23T06:01:34.447Z,30.53
2022-09-23T06:02:04.156Z,30.56
2022-09-23T06:02:34.304Z,30.58
2022-09-23T06:03:04.348Z,30.68
2022-09-23T06:03:34.331Z,30.67
2022-09-23T06:04:04.326Z,30.67
2022-09-23T06:04:34.442Z,30.71
2022-09-23T06:05:04.554Z,30.70
2022-09-23T06:05:34.674Z,30.76
2022-09-23T06:06:04.667Z,30.75
2022-09-23T06:06:34.819Z,30.74
2022-09-23T06:07:04.814Z,30.84
2022-09-23T06:07:34.816Z,30.84
2022-09-23T06:08:04.927Z,30.82
2022-09-23T06:08:35.040Z,30.87
2022-09-23T06:09:05.035Z,30.90
2022-09-23T06:09:36.702Z,30.94
2022-09-23T06:10:05.267Z,30.93
2022-09-23T06:10:35.265Z,30.93
2022-09-23T06:11:05.260Z,30.93
2022-09-23T06:11:35.415Z,30.95
2022-09-23T06:12:05.384Z,30.91
2022-09-23T06:12:35.485Z,30.99
2022-09-23T06:13:05.560Z,31.00
2022-09-23T06:13:35.637Z,30.99
2022-09-23T06:14:05.843Z,30.96
2022-09-23T06:14:35.744Z,30.95
2022-09-23T06:15:05.822Z,31.03
2022-09-23T06:15:35.911Z,31.00
2022-09-23T06:16:06.070Z,30.96
2022-09-23T06:16:36.150Z,30.95
2022-09-23T06:17:06.105Z,31.00
2022-09-23T06:17:36.194Z,31.01
2022-09-23T06:18:06.267Z,30.95
2022-09-23T06:18:36.346Z,30.89
2022-09-23T06:19:07.023Z,30.86
2022-09-23T06:19:36.523Z,30.82
2022-09-23T06:20:06.597Z,30.97
2022-09-23T06:20:36.686Z,30.86
2022-09-23T06:21:06.762Z,30.91
2022-09-23T06:21:36.848Z,30.94
2022-09-23T06:22:06.927Z,30.95
2022-09-23T06:22:39.794Z,30.92
2022-09-23T06:23:09.967Z,30.91
2022-09-23T06:23:40.547Z,30.95
2022-09-23T06:24:07.491Z,31.06
2022-09-23T06:24:37.262Z,31.07
2022-09-23T06:25:07.379Z,31.01
2022-09-23T06:25:37.400Z,31.06
2022-09-23T06:26:07.495Z,31.01
2022-09-23T06:26:37.668Z,31.12
2022-09-23T06:27:07.630Z,31.11
2022-09-23T06:27:37.750Z,31.06
2022-09-23T06:28:07.867Z,31.04
2022-09-23T06:28:37.984Z,31.13
2022-09-23T06:29:07.977Z,31.12
2022-09-23T06:29:38.099Z,31.09
2022-09-23T06:30:08.215Z,31.10
2022-09-23T06:30:38.333Z,31.16
2022-09-23T06:31:12.885Z,31.13